sensor_id;sensor_type;location;lat;lon;timestamp;P1;durP1;ratioP1;P2;durP2;ratioP2
64157;SDS011;50449;51.528;5.076;2022-09-20T00:00:42;28.85;;;27.20;;
64157;SDS011;50449;51.528;5.076;2022-09-20T00:03:09;31.80;;;29.60;;
64157;SDS011;50449;51.528;5.076;2022-09-20T00:05:36;28.15;;;26.65;;
64157;SDS011;50449;51.528;5.076;2022-09-20T00:08:03;29.00;;;27.40;;
64157;SDS011;50449;51.528;5.076;2022-09-20T00:10:29;28.83;;;27.23;;
64157;SDS011;50449;51.528;5.076;2022-09-20T00:13:04;28.13;;;26.40;;
64157;SDS011;50449;51.528;5.076;2022-09-20T00:15:30;29.88;;;28.38;;
64157;SDS011;50449;51.528;5.076;2022-09-20T00:17:56;30.58;;;28.48;;
64157;SDS011;50449;51.528;5.076;2022-09-20T00:20:22;29.45;;;27.27;;
64157;SDS011;50449;51.528;5.076;2022-09-20T00:22:48;30.92;;;29.17;;
64157;SDS011;50449;51.528;5.076;2022-09-20T00:25:15;28.70;;;27.10;;
64157;SDS011;50449;51.528;5.076;2022-09-20T00:27:41;28.83;;;27.33;;
64157;SDS011;50449;51.528;5.076;2022-09-20T00:30:07;28.58;;;27.08;;
64157;SDS011;50449;51.528;5.076;2022-09-20T00:32:33;29.77;;;28.27;;
64157;SDS011;50449;51.528;5.076;2022-09-20T00:34:58;29.58;;;27.98;;
64157;SDS011;50449;51.528;5.076;2022-09-20T00:37:33;28.10;;;26.50;;
64157;SDS011;50449;51.528;5.076;2022-09-20T00:39:59;29.40;;;27.55;;
64157;SDS011;50449;51.528;5.076;2022-09-20T00:42:26;29.30;;;27.67;;
64157;SDS011;50449;51.528;5.076;2022-09-20T00:44:54;28.80;;;27.02;;
64157;SDS011;50449;51.528;5.076;2022-09-20T00:49:58;30.90;;;28.65;;
64157;SDS011;50449;51.528;5.076;2022-09-20T00:52:31;29.20;;;27.43;;
64157;SDS011;50449;51.528;5.076;2022-09-20T00:54:59;30.23;;;27.85;;
64157;SDS011;50449;51.528;5.076;2022-09-20T00:57:25;29.50;;;27.88;;
64157;SDS011;50449;51.528;5.076;2022-09-20T00:59:50;29.30;;;27.67;;
64157;SDS011;50449;51.528;5.076;2022-09-20T01:02:19;28.60;;;26.95;;
64157;SDS011;50449;51.528;5.076;2022-09-20T01:04:48;27.77;;;26.15;;
64157;SDS011;50449;51.528;5.076;2022-09-20T01:07:15;28.13;;;26.52;;
64157;SDS011;50449;51.528;5.076;2022-09-20T01:09:43;29.65;;;27.95;;
64157;SDS011;50449;51.528;5.076;2022-09-20T01:12:10;27.80;;;26.40;;
64157;SDS011;50449;51.528;5.076;2022-09-20T01:14:39;28.75;;;27.15;;
64157;SDS011;50449;51.528;5.076;2022-09-20T01:17:07;27.98;;;26.45;;
64157;SDS011;50449;51.528;5.076;2022-09-20T01:19:35;29.73;;;28.00;;
64157;SDS011;50449;51.528;5.076;2022-09-20T01:22:11;30.38;;;28.67;;
64157;SDS011;50449;51.528;5.076;2022-09-20T01:25:17;29.38;;;27.75;;
64157;SDS011;50449;51.528;5.076;2022-09-20T01:28:05;29.80;;;27.75;;
64157;SDS011;50449;51.528;5.076;2022-09-20T01:30:33;26.65;;;25.05;;
64157;SDS011;50449;51.528;5.076;2022-09-20T01:33:13;28.00;;;26.40;;
64157;SDS011;50449;51.528;5.076;2022-09-20T01:35:43;27.50;;;25.52;;
64157;SDS011;50449;51.528;5.076;2022-09-20T01:41:40;26.88;;;25.27;;
64157;SDS011;50449;51.528;5.076;2022-09-20T01:46:55;27.63;;;26.02;;
64157;SDS011;50449;51.528;5.076;2022-09-20T01:54:53;26.75;;;25.25;;
64157;SDS011;50449;51.528;5.076;2022-09-20T02:03:23;28.48;;;26.35;;
64157;SDS011;50449;51.528;5.076;2022-09-20T02:14:54;28.45;;;26.75;;
64157;SDS011;50449;51.528;5.076;2022-09-20T02:28:19;27.08;;;25.48;;
64157;SDS011;50449;51.528;5.076;2022-09-20T02:30:58;25.63;;;24.20;;
64157;SDS011;50449;51.528;5.076;2022-09-20T02:43:53;26.35;;;24.75;;
64157;SDS011;50449;51.528;5.076;2022-09-20T02:51:48;27.73;;;25.60;;
64157;SDS011;50449;51.528;5.076;2022-09-20T02:57:02;27.20;;;25.55;;
64157;SDS011;50449;51.528;5.076;2022-09-20T03:08:37;28.10;;;26.58;;
64157;SDS011;50449;51.528;5.076;2022-09-20T03:11:29;26.00;;;24.50;;
64157;SDS011;50449;51.528;5.076;2022-09-20T03:31:18;26.30;;;24.70;;
64157;SDS011;50449;51.528;5.076;2022-09-20T03:39:22;26.65;;;24.75;;
64157;SDS011;50449;51.528;5.076;2022-09-20T04:03:24;26.67;;;25.08;;
64157;SDS011;50449;51.528;5.076;2022-09-20T04:06:01;25.17;;;23.80;;
64157;SDS011;50449;51.528;5.076;2022-09-20T04:11:47;26.40;;;24.95;;
64157;SDS011;50449;51.528;5.076;2022-09-20T04:16:57;27.20;;;25.65;;
64157;SDS011;50449;51.528;5.076;2022-09-20T04:19:32;26.92;;;25.23;;
64157;SDS011;50449;51.528;5.076;2022-09-20T04:22:07;25.45;;;23.95;;
64157;SDS011;50449;51.528;5.076;2022-09-20T04:27:35;26.23;;;24.23;;
64157;SDS011;50449;51.528;5.076;2022-09-20T04:37:59;25.60;;;24.20;;
64157;SDS011;50449;51.528;5.076;2022-09-20T05:00:28;26.67;;;24.98;;
64157;SDS011;50449;51.528;5.076;2022-09-20T05:03:22;27.33;;;25.55;;
64157;SDS011;50449;51.528;5.076;2022-09-20T05:20:55;30.52;;;28.63;;
64157;SDS011;50449;51.528;5.076;2022-09-20T05:24:05;27.77;;;26.15;;
64157;SDS011;50449;51.528;5.076;2022-09-20T05:26:55;27.40;;;25.90;;
64157;SDS011;50449;51.528;5.076;2022-09-20T05:29:25;28.17;;;26.58;;
64157;SDS011;50449;51.528;5.076;2022-09-20T05:37:18;27.17;;;25.42;;
64157;SDS011;50449;51.528;5.076;2022-09-20T05:40:01;25.33;;;23.48;;
64157;SDS011;50449;51.528;5.076;2022-09-20T05:42:41;26.85;;;25.35;;
64157;SDS011;50449;51.528;5.076;2022-09-20T05:47:54;27.48;;;25.10;;
64157;SDS011;50449;51.528;5.076;2022-09-20T05:50:32;27.30;;;25.70;;
64157;SDS011;50449;51.528;5.076;2022-09-20T06:07:19;25.15;;;23.75;;
64157;SDS011;50449;51.528;5.076;2022-09-20T06:15:55;24.50;;;23.17;;
64157;SDS011;50449;51.528;5.076;2022-09-20T06:21:15;26.35;;;24.48;;
64157;SDS011;50449;51.528;5.076;2022-09-20T06:23:43;26.88;;;25.38;;
64157;SDS011;50449;51.528;5.076;2022-09-20T06:26:13;26.40;;;24.90;;
64157;SDS011;50449;51.528;5.076;2022-09-20T06:28:53;25.17;;;23.77;;
64157;SDS011;50449;51.528;5.076;2022-09-20T06:31:24;26.38;;;24.88;;
64157;SDS011;50449;51.528;5.076;2022-09-20T06:33:53;25.98;;;24.60;;
64157;SDS011;50449;51.528;5.076;2022-09-20T06:36:27;25.30;;;24.00;;
64157;SDS011;50449;51.528;5.076;2022-09-20T06:42:26;26.40;;;24.85;;
64157;SDS011;50449;51.528;5.076;2022-09-20T06:44:53;24.80;;;23.23;;
64157;SDS011;50449;51.528;5.076;2022-09-20T06:47:19;27.23;;;25.55;;
64157;SDS011;50449;51.528;5.076;2022-09-20T06:49:47;24.55;;;23.05;;
64157;SDS011;50449;51.528;5.076;2022-09-20T06:52:14;27.50;;;25.75;;
64157;SDS011;50449;51.528;5.076;2022-09-20T06:54:42;24.73;;;23.25;;
64157;SDS011;50449;51.528;5.076;2022-09-20T06:57:10;25.23;;;23.60;;
64157;SDS011;50449;51.528;5.076;2022-09-20T06:59:39;25.80;;;24.30;;
64157;SDS011;50449;51.528;5.076;2022-09-20T07:02:04;24.92;;;23.38;;
64157;SDS011;50449;51.528;5.076;2022-09-20T07:04:30;26.42;;;24.67;;
64157;SDS011;50449;51.528;5.076;2022-09-20T07:07:00;26.55;;;25.15;;
64157;SDS011;50449;51.528;5.076;2022-09-20T07:09:26;26.58;;;25.10;;
64157;SDS011;50449;51.528;5.076;2022-09-20T07:11:52;25.63;;;24.13;;
64157;SDS011;50449;51.528;5.076;2022-09-20T07:14:19;25.65;;;24.02;;
64157;SDS011;50449;51.528;5.076;2022-09-20T07:16:44;26.10;;;24.42;;
64157;SDS011;50449;51.528;5.076;2022-09-20T07:19:10;24.73;;;23.23;;
64157;SDS011;50449;51.528;5.076;2022-09-20T07:21:35;27.15;;;25.42;;
64157;SDS011;50449;51.528;5.076;2022-09-20T07:24:00;25.20;;;23.65;;
64157;SDS011;50449;51.528;5.076;2022-09-20T07:26:27;24.63;;;23.08;;
64157;SDS011;50449;51.528;5.076;2022-09-20T07:28:54;24.85;;;23.45;;
64157;SDS011;50449;51.528;5.076;2022-09-20T07:31:21;26.48;;;24.70;;
64157;SDS011;50449;51.528;5.076;2022-09-20T07:33:48;26.52;;;24.90;;
64157;SDS011;50449;51.528;5.076;2022-09-20T07:36:14;25.48;;;23.75;;
64157;SDS011;50449;51.528;5.076;2022-09-20T07:38:40;26.70;;;25.20;;
64157;SDS011;50449;51.528;5.076;2022-09-20T07:41:07;25.65;;;23.98;;
64157;SDS011;50449;51.528;5.076;2022-09-20T07:43:34;25.92;;;24.40;;
64157;SDS011;50449;51.528;5.076;2022-09-20T07:46:00;24.92;;;23.42;;
64157;SDS011;50449;51.528;5.076;2022-09-20T07:48:28;25.48;;;23.88;;
64157;SDS011;50449;51.528;5.076;2022-09-20T07:50:56;26.13;;;23.70;;
64157;SDS011;50449;51.528;5.076;2022-09-20T07:53:26;27.45;;;25.05;;
64157;SDS011;50449;51.528;5.076;2022-09-20T07:55:58;25.80;;;24.30;;
64157;SDS011;50449;51.528;5.076;2022-09-20T07:58:25;26.67;;;25.13;;
64157;SDS011;50449;51.528;5.076;2022-09-20T08:00:56;25.45;;;23.75;;
64157;SDS011;50449;51.528;5.076;2022-09-20T08:03:23;25.35;;;23.55;;
64157;SDS011;50449;51.528;5.076;2022-09-20T08:05:50;24.52;;;23.13;;
64157;SDS011;50449;51.528;5.076;2022-09-20T08:08:16;25.02;;;23.75;;
64157;SDS011;50449;51.528;5.076;2022-09-20T08:10:43;25.65;;;24.25;;
64157;SDS011;50449;51.528;5.076;2022-09-20T08:13:10;24.10;;;22.88;;
64157;SDS011;50449;51.528;5.076;2022-09-20T08:15:37;25.08;;;23.67;;
64157;SDS011;50449;51.528;5.076;2022-09-20T08:18:02;26.67;;;24.85;;
64157;SDS011;50449;51.528;5.076;2022-09-20T08:20:28;26.00;;;24.40;;
64157;SDS011;50449;51.528;5.076;2022-09-20T08:22:53;25.55;;;24.02;;
64157;SDS011;50449;51.528;5.076;2022-09-20T08:25:19;25.65;;;24.05;;
64157;SDS011;50449;51.528;5.076;2022-09-20T08:27:51;27.88;;;26.08;;
64157;SDS011;50449;51.528;5.076;2022-09-20T08:30:17;26.85;;;25.02;;
64157;SDS011;50449;51.528;5.076;2022-09-20T08:32:43;25.80;;;24.30;;
64157;SDS011;50449;51.528;5.076;2022-09-20T08:35:08;27.00;;;24.92;;
64157;SDS011;50449;51.528;5.076;2022-09-20T08:37:34;26.40;;;24.90;;
64157;SDS011;50449;51.528;5.076;2022-09-20T08:40:02;26.25;;;24.65;;
64157;SDS011;50449;51.528;5.076;2022-09-20T08:42:34;27.92;;;26.13;;
64157;SDS011;50449;51.528;5.076;2022-09-20T08:45:10;25.95;;;24.25;;
64157;SDS011;50449;51.528;5.076;2022-09-20T08:48:01;27.10;;;24.95;;
64157;SDS011;50449;51.528;5.076;2022-09-20T08:50:29;27.23;;;25.60;;
64157;SDS011;50449;51.528;5.076;2022-09-20T08:52:56;27.52;;;25.58;;
64157;SDS011;50449;51.528;5.076;2022-09-20T08:55:25;29.63;;;27.58;;
64157;SDS011;50449;51.528;5.076;2022-09-20T08:57:58;26.63;;;25.00;;
64157;SDS011;50449;51.528;5.076;2022-09-20T09:00:29;27.95;;;25.90;;
64157;SDS011;50449;51.528;5.076;2022-09-20T09:02:59;26.35;;;24.75;;
64157;SDS011;50449;51.528;5.076;2022-09-20T09:05:31;25.55;;;23.98;;
64157;SDS011;50449;51.528;5.076;2022-09-20T09:08:14;25.70;;;23.98;;
64157;SDS011;50449;51.528;5.076;2022-09-20T09:10:47;26.23;;;24.48;;
64157;SDS011;50449;51.528;5.076;2022-09-20T09:13:27;26.00;;;24.52;;
64157;SDS011;50449;51.528;5.076;2022-09-20T09:15:56;24.30;;;22.77;;
64157;SDS011;50449;51.528;5.076;2022-09-20T09:18:27;26.45;;;25.02;;
64157;SDS011;50449;51.528;5.076;2022-09-20T09:20:58;27.38;;;25.88;;
64157;SDS011;50449;51.528;5.076;2022-09-20T09:23:28;26.65;;;24.90;;
64157;SDS011;50449;51.528;5.076;2022-09-20T09:25:59;26.38;;;24.88;;
64157;SDS011;50449;51.528;5.076;2022-09-20T09:28:28;24.90;;;23.55;;
64157;SDS011;50449;51.528;5.076;2022-09-20T09:33:47;27.58;;;25.98;;
64157;SDS011;50449;51.528;5.076;2022-09-20T09:36:13;26.25;;;24.13;;
64157;SDS011;50449;51.528;5.076;2022-09-20T09:44:35;26.70;;;25.30;;
64157;SDS011;50449;51.528;5.076;2022-09-20T09:46:50;26.85;;;25.45;;
64157;SDS011;50449;51.528;5.076;2022-09-20T09:52:21;26.63;;;25.17;;
64157;SDS011;50449;51.528;5.076;2022-09-20T09:54:52;26.35;;;24.85;;
64157;SDS011;50449;51.528;5.076;2022-09-20T10:00:27;26.90;;;25.00;;
64157;SDS011;50449;51.528;5.076;2022-09-20T10:03:01;25.80;;;24.40;;
64157;SDS011;50449;51.528;5.076;2022-09-20T10:08:29;25.90;;;24.40;;
64157;SDS011;50449;51.528;5.076;2022-09-20T10:24:49;26.90;;;25.52;;
64157;SDS011;50449;51.528;5.076;2022-09-20T10:30:00;29.35;;;27.70;;
64157;SDS011;50449;51.528;5.076;2022-09-20T10:35:13;26.65;;;25.30;;
64157;SDS011;50449;51.528;5.076;2022-09-20T10:38:05;26.90;;;25.27;;
64157;SDS011;50449;51.528;5.076;2022-09-20T10:40:35;27.27;;;25.40;;
64157;SDS011;50449;51.528;5.076;2022-09-20T10:43:49;27.35;;;25.95;;
64157;SDS011;50449;51.528;5.076;2022-09-20T10:46:56;26.73;;;25.42;;
64157;SDS011;50449;51.528;5.076;2022-09-20T10:52:25;27.30;;;25.73;;
64157;SDS011;50449;51.528;5.076;2022-09-20T11:08:51;29.15;;;27.55;;
64157;SDS011;50449;51.528;5.076;2022-09-20T11:11:22;27.95;;;26.40;;
64157;SDS011;50449;51.528;5.076;2022-09-20T11:14:00;30.13;;;28.23;;
64157;SDS011;50449;51.528;5.076;2022-09-20T11:16:35;27.98;;;26.58;;
64157;SDS011;50449;51.528;5.076;2022-09-20T11:27:31;28.92;;;27.20;;
64157;SDS011;50449;51.528;5.076;2022-09-20T11:30:03;31.40;;;29.50;;
64157;SDS011;50449;51.528;5.076;2022-09-20T11:35:21;27.83;;;26.42;;
64157;SDS011;50449;51.528;5.076;2022-09-20T11:38:36;31.25;;;28.85;;
64157;SDS011;50449;51.528;5.076;2022-09-20T11:40:47;29.48;;;27.77;;
64157;SDS011;50449;51.528;5.076;2022-09-20T11:43:17;28.20;;;26.80;;
64157;SDS011;50449;51.528;5.076;2022-09-20T11:45:44;28.85;;;27.35;;
64157;SDS011;50449;51.528;5.076;2022-09-20T11:48:27;28.83;;;27.33;;
64157;SDS011;50449;51.528;5.076;2022-09-20T11:51:15;30.02;;;28.40;;
64157;SDS011;50449;51.528;5.076;2022-09-20T11:54:06;30.00;;;28.45;;
64157;SDS011;50449;51.528;5.076;2022-09-20T11:56:50;29.90;;;28.08;;
64157;SDS011;50449;51.528;5.076;2022-09-20T11:59:26;29.85;;;28.30;;
64157;SDS011;50449;51.528;5.076;2022-09-20T12:04:54;29.77;;;27.92;;
64157;SDS011;50449;51.528;5.076;2022-09-20T12:09:53;28.98;;;27.45;;
64157;SDS011;50449;51.528;5.076;2022-09-20T12:12:38;29.17;;;27.48;;
64157;SDS011;50449;51.528;5.076;2022-09-20T12:28:49;29.02;;;27.42;;
64157;SDS011;50449;51.528;5.076;2022-09-20T12:36:37;29.95;;;28.42;;
64157;SDS011;50449;51.528;5.076;2022-09-20T12:58:01;29.85;;;28.02;;
64157;SDS011;50449;51.528;5.076;2022-09-20T13:00:35;30.88;;;29.00;;
64157;SDS011;50449;51.528;5.076;2022-09-20T13:05:40;29.98;;;28.38;;
64157;SDS011;50449;51.528;5.076;2022-09-20T13:10:59;31.40;;;29.75;;
64157;SDS011;50449;51.528;5.076;2022-09-20T13:19:01;30.92;;;29.38;;
64157;SDS011;50449;51.528;5.076;2022-09-20T13:21:35;30.23;;;28.52;;
64157;SDS011;50449;51.528;5.076;2022-09-20T13:24:03;31.10;;;28.83;;
64157;SDS011;50449;51.528;5.076;2022-09-20T13:26:33;30.13;;;28.42;;
64157;SDS011;50449;51.528;5.076;2022-09-20T13:29:03;32.95;;;31.08;;
64157;SDS011;50449;51.528;5.076;2022-09-20T13:31:33;30.27;;;28.67;;
64157;SDS011;50449;51.528;5.076;2022-09-20T13:34:22;31.88;;;30.20;;
64157;SDS011;50449;51.528;5.076;2022-09-20T13:36:50;30.90;;;29.10;;
64157;SDS011;50449;51.528;5.076;2022-09-20T13:39:28;31.58;;;29.98;;
64157;SDS011;50449;51.528;5.076;2022-09-20T13:42:04;31.45;;;29.85;;
64157;SDS011;50449;51.528;5.076;2022-09-20T13:44:32;30.73;;;29.23;;
64157;SDS011;50449;51.528;5.076;2022-09-20T13:46:58;31.67;;;29.63;;
64157;SDS011;50449;51.528;5.076;2022-09-20T13:49:24;32.10;;;30.25;;
64157;SDS011;50449;51.528;5.076;2022-09-20T13:51:55;32.25;;;30.45;;
64157;SDS011;50449;51.528;5.076;2022-09-20T13:54:28;32.40;;;30.77;;
64157;SDS011;50449;51.528;5.076;2022-09-20T13:56:56;33.70;;;31.83;;
64157;SDS011;50449;51.528;5.076;2022-09-20T13:59:25;30.70;;;29.13;;
64157;SDS011;50449;51.528;5.076;2022-09-20T14:01:58;31.83;;;30.13;;
64157;SDS011;50449;51.528;5.076;2022-09-20T14:04:24;31.75;;;30.00;;
64157;SDS011;50449;51.528;5.076;2022-09-20T14:06:52;32.92;;;30.98;;
64157;SDS011;50449;51.528;5.076;2022-09-20T14:09:23;33.33;;;31.17;;
64157;SDS011;50449;51.528;5.076;2022-09-20T14:11:54;33.97;;;31.85;;
64157;SDS011;50449;51.528;5.076;2022-09-20T14:14:20;31.45;;;29.95;;
64157;SDS011;50449;51.528;5.076;2022-09-20T14:16:48;31.20;;;29.40;;
64157;SDS011;50449;51.528;5.076;2022-09-20T14:19:16;33.00;;;31.30;;
64157;SDS011;50449;51.528;5.076;2022-09-20T14:21:44;31.88;;;30.13;;
64157;SDS011;50449;51.528;5.076;2022-09-20T14:26:42;32.03;;;30.20;;
64157;SDS011;50449;51.528;5.076;2022-09-20T14:32:10;34.08;;;31.58;;
64157;SDS011;50449;51.528;5.076;2022-09-20T14:34:38;32.13;;;30.15;;
64157;SDS011;50449;51.528;5.076;2022-09-20T14:37:06;32.42;;;30.52;;
64157;SDS011;50449;51.528;5.076;2022-09-20T14:39:52;31.98;;;30.40;;
64157;SDS011;50449;51.528;5.076;2022-09-20T14:45:22;32.20;;;30.08;;
64157;SDS011;50449;51.528;5.076;2022-09-20T14:53:04;32.92;;;31.23;;
64157;SDS011;50449;51.528;5.076;2022-09-20T14:55:33;31.98;;;30.38;;
64157;SDS011;50449;51.528;5.076;2022-09-20T14:58:04;31.40;;;29.60;;
64157;SDS011;50449;51.528;5.076;2022-09-20T15:00:46;32.67;;;30.85;;
64157;SDS011;50449;51.528;5.076;2022-09-20T15:03:15;34.03;;;32.22;;
64157;SDS011;50449;51.528;5.076;2022-09-20T15:05:45;32.70;;;30.83;;
64157;SDS011;50449;51.528;5.076;2022-09-20T15:08:13;31.77;;;29.98;;
64157;SDS011;50449;51.528;5.076;2022-09-20T15:10:39;32.90;;;31.00;;
64157;SDS011;50449;51.528;5.076;2022-09-20T15:13:07;32.88;;;31.13;;
64157;SDS011;50449;51.528;5.076;2022-09-20T15:15:35;31.75;;;29.95;;
64157;SDS011;50449;51.528;5.076;2022-09-20T15:18:01;33.10;;;31.38;;
64157;SDS011;50449;51.528;5.076;2022-09-20T15:20:27;33.50;;;31.35;;
64157;SDS011;50449;51.528;5.076;2022-09-20T15:22:53;34.45;;;32.30;;
64157;SDS011;50449;51.528;5.076;2022-09-20T15:25:19;34.42;;;32.47;;
64157;SDS011;50449;51.528;5.076;2022-09-20T15:27:45;33.67;;;31.40;;
64157;SDS011;50449;51.528;5.076;2022-09-20T15:30:13;32.60;;;30.80;;
64157;SDS011;50449;51.528;5.076;2022-09-20T15:32:40;32.38;;;30.48;;
64157;SDS011;50449;51.528;5.076;2022-09-20T15:35:07;34.42;;;32.58;;
64157;SDS011;50449;51.528;5.076;2022-09-20T15:37:33;31.55;;;29.85;;
64157;SDS011;50449;51.528;5.076;2022-09-20T15:39:58;33.45;;;31.45;;
64157;SDS011;50449;51.528;5.076;2022-09-20T15:42:24;35.60;;;33.80;;
64157;SDS011;50449;51.528;5.076;2022-09-20T15:44:49;33.08;;;31.38;;
64157;SDS011;50449;51.528;5.076;2022-09-20T15:47:17;34.60;;;32.80;;
64157;SDS011;50449;51.528;5.076;2022-09-20T15:49:46;33.90;;;32.10;;
64157;SDS011;50449;51.528;5.076;2022-09-20T15:52:13;34.10;;;32.20;;
64157;SDS011;50449;51.528;5.076;2022-09-20T15:54:39;32.80;;;30.65;;
64157;SDS011;50449;51.528;5.076;2022-09-20T15:57:04;32.92;;;31.23;;
64157;SDS011;50449;51.528;5.076;2022-09-20T15:59:30;34.35;;;32.55;;
64157;SDS011;50449;51.528;5.076;2022-09-20T16:01:58;32.28;;;30.50;;
64157;SDS011;50449;51.528;5.076;2022-09-20T16:04:24;32.80;;;31.08;;
64157;SDS011;50449;51.528;5.076;2022-09-20T16:06:51;33.65;;;31.70;;
64157;SDS011;50449;51.528;5.076;2022-09-20T16:09:18;35.10;;;32.67;;
64157;SDS011;50449;51.528;5.076;2022-09-20T16:11:44;34.28;;;31.60;;
64157;SDS011;50449;51.528;5.076;2022-09-20T16:14:11;33.85;;;32.05;;
64157;SDS011;50449;51.528;5.076;2022-09-20T16:16:38;32.45;;;30.55;;
64157;SDS011;50449;51.528;5.076;2022-09-20T16:19:04;33.03;;;31.42;;
64157;SDS011;50449;51.528;5.076;2022-09-20T16:21:42;32.80;;;31.08;;
64157;SDS011;50449;51.528;5.076;2022-09-20T16:24:11;32.22;;;30.50;;
64157;SDS011;50449;51.528;5.076;2022-09-20T16:26:37;34.03;;;31.38;;
64157;SDS011;50449;51.528;5.076;2022-09-20T16:29:03;32.88;;;31.20;;
64157;SDS011;50449;51.528;5.076;2022-09-20T16:36:49;31.85;;;30.25;;
64157;SDS011;50449;51.528;5.076;2022-09-20T16:39:17;33.08;;;31.38;;
64157;SDS011;50449;51.528;5.076;2022-09-20T16:41:47;34.40;;;32.38;;
64157;SDS011;50449;51.528;5.076;2022-09-20T16:44:13;35.15;;;33.30;;
64157;SDS011;50449;51.528;5.076;2022-09-20T16:46:39;32.50;;;30.90;;
64157;SDS011;50449;51.528;5.076;2022-09-20T16:49:05;34.50;;;32.70;;
64157;SDS011;50449;51.528;5.076;2022-09-20T16:51:37;31.88;;;30.17;;
64157;SDS011;50449;51.528;5.076;2022-09-20T16:54:04;31.50;;;29.90;;
64157;SDS011;50449;51.528;5.076;2022-09-20T16:56:41;33.22;;;31.23;;
64157;SDS011;50449;51.528;5.076;2022-09-20T16:59:09;32.25;;;30.65;;
64157;SDS011;50449;51.528;5.076;2022-09-20T17:01:35;33.58;;;31.55;;
64157;SDS011;50449;51.528;5.076;2022-09-20T17:04:01;32.22;;;30.73;;
64157;SDS011;50449;51.528;5.076;2022-09-20T17:06:31;33.83;;;31.70;;
64157;SDS011;50449;51.528;5.076;2022-09-20T17:08:58;32.15;;;30.52;;
64157;SDS011;50449;51.528;5.076;2022-09-20T17:11:25;35.35;;;33.00;;
64157;SDS011;50449;51.528;5.076;2022-09-20T17:13:53;33.35;;;31.40;;
64157;SDS011;50449;51.528;5.076;2022-09-20T17:16:29;33.90;;;31.85;;
64157;SDS011;50449;51.528;5.076;2022-09-20T17:19:09;33.05;;;31.13;;
64157;SDS011;50449;51.528;5.076;2022-09-20T17:21:40;31.15;;;29.55;;
64157;SDS011;50449;51.528;5.076;2022-09-20T17:24:09;32.15;;;30.13;;
64157;SDS011;50449;51.528;5.076;2022-09-20T17:26:36;31.38;;;29.88;;
64157;SDS011;50449;51.528;5.076;2022-09-20T17:29:05;31.70;;;30.15;;
64157;SDS011;50449;51.528;5.076;2022-09-20T17:31:32;32.75;;;30.85;;
64157;SDS011;50449;51.528;5.076;2022-09-20T17:34:03;32.38;;;30.67;;
64157;SDS011;50449;51.528;5.076;2022-09-20T17:36:31;33.60;;;30.52;;
64157;SDS011;50449;51.528;5.076;2022-09-20T17:38:59;34.85;;;32.53;;
64157;SDS011;50449;51.528;5.076;2022-09-20T17:41:25;36.72;;;34.00;;
64157;SDS011;50449;51.528;5.076;2022-09-20T17:43:52;36.00;;;33.70;;
64157;SDS011;50449;51.528;5.076;2022-09-20T17:46:23;37.23;;;35.03;;
64157;SDS011;50449;51.528;5.076;2022-09-20T17:48:59;33.50;;;31.52;;
64157;SDS011;50449;51.528;5.076;2022-09-20T17:51:27;35.28;;;33.13;;
64157;SDS011;50449;51.528;5.076;2022-09-20T17:53:54;34.53;;;32.15;;
64157;SDS011;50449;51.528;5.076;2022-09-20T17:56:20;34.92;;;32.88;;
64157;SDS011;50449;51.528;5.076;2022-09-20T17:58:48;34.63;;;32.72;;
64157;SDS011;50449;51.528;5.076;2022-09-20T18:01:15;35.30;;;32.90;;
64157;SDS011;50449;51.528;5.076;2022-09-20T18:03:43;35.60;;;33.50;;
64157;SDS011;50449;51.528;5.076;2022-09-20T18:06:46;33.92;;;31.90;;
64157;SDS011;50449;51.528;5.076;2022-09-20T18:09:09;33.83;;;31.92;;
64157;SDS011;50449;51.528;5.076;2022-09-20T18:11:40;35.63;;;33.20;;
64157;SDS011;50449;51.528;5.076;2022-09-20T18:14:08;36.55;;;34.25;;
64157;SDS011;50449;51.528;5.076;2022-09-20T18:16:34;33.65;;;31.70;;
64157;SDS011;50449;51.528;5.076;2022-09-20T18:19:01;31.98;;;30.27;;
64157;SDS011;50449;51.528;5.076;2022-09-20T18:21:27;36.78;;;34.70;;
64157;SDS011;50449;51.528;5.076;2022-09-20T18:23:54;35.45;;;33.40;;
64157;SDS011;50449;51.528;5.076;2022-09-20T18:26:24;36.13;;;33.90;;
64157;SDS011;50449;51.528;5.076;2022-09-20T18:29:02;31.73;;;30.02;;
64157;SDS011;50449;51.528;5.076;2022-09-20T18:34:03;33.25;;;31.33;;
64157;SDS011;50449;51.528;5.076;2022-09-20T18:36:31;33.63;;;31.50;;
64157;SDS011;50449;51.528;5.076;2022-09-20T18:38:58;30.77;;;29.07;;
64157;SDS011;50449;51.528;5.076;2022-09-20T18:41:25;32.13;;;30.48;;
64157;SDS011;50449;51.528;5.076;2022-09-20T18:43:52;33.08;;;31.15;;
64157;SDS011;50449;51.528;5.076;2022-09-20T18:46:19;34.13;;;31.92;;
64157;SDS011;50449;51.528;5.076;2022-09-20T18:48:49;31.40;;;29.63;;
64157;SDS011;50449;51.528;5.076;2022-09-20T18:51:15;33.28;;;31.38;;
64157;SDS011;50449;51.528;5.076;2022-09-20T18:53:41;34.70;;;32.70;;
64157;SDS011;50449;51.528;5.076;2022-09-20T18:56:20;36.88;;;34.45;;
64157;SDS011;50449;51.528;5.076;2022-09-20T18:58:46;34.35;;;32.05;;
64157;SDS011;50449;51.528;5.076;2022-09-20T19:12:29;34.63;;;32.28;;
64157;SDS011;50449;51.528;5.076;2022-09-20T19:20:57;32.45;;;30.75;;
64157;SDS011;50449;51.528;5.076;2022-09-20T19:23:40;32.55;;;30.48;;
64157;SDS011;50449;51.528;5.076;2022-09-20T19:26:22;31.30;;;29.50;;
64157;SDS011;50449;51.528;5.076;2022-09-20T19:28:53;31.45;;;29.65;;
64157;SDS011;50449;51.528;5.076;2022-09-20T19:31:28;31.25;;;29.45;;
64157;SDS011;50449;51.528;5.076;2022-09-20T19:33:58;30.23;;;28.52;;
64157;SDS011;50449;51.528;5.076;2022-09-20T19:36:47;34.53;;;31.77;;
64157;SDS011;50449;51.528;5.076;2022-09-20T19:50:44;32.28;;;30.48;;
64157;SDS011;50449;51.528;5.076;2022-09-20T19:53:13;32.03;;;30.13;;
64157;SDS011;50449;51.528;5.076;2022-09-20T19:55:42;31.23;;;29.48;;
64157;SDS011;50449;51.528;5.076;2022-09-20T19:58:11;34.38;;;32.10;;
64157;SDS011;50449;51.528;5.076;2022-09-20T20:00:37;32.50;;;30.60;;
64157;SDS011;50449;51.528;5.076;2022-09-20T20:03:03;32.03;;;29.60;;
64157;SDS011;50449;51.528;5.076;2022-09-20T20:05:29;32.65;;;30.50;;
64157;SDS011;50449;51.528;5.076;2022-09-20T20:07:58;32.58;;;30.83;;
64157;SDS011;50449;51.528;5.076;2022-09-20T20:10:56;31.77;;;29.98;;
64157;SDS011;50449;51.528;5.076;2022-09-20T20:13:33;32.50;;;30.70;;
64157;SDS011;50449;51.528;5.076;2022-09-20T20:16:29;32.83;;;30.83;;
64157;SDS011;50449;51.528;5.076;2022-09-20T20:19:02;32.17;;;30.38;;
64157;SDS011;50449;51.528;5.076;2022-09-20T20:21:51;32.45;;;30.65;;
64157;SDS011;50449;51.528;5.076;2022-09-20T20:24:36;31.65;;;29.90;;
64157;SDS011;50449;51.528;5.076;2022-09-20T20:27:09;32.25;;;30.27;;
64157;SDS011;50449;51.528;5.076;2022-09-20T20:29:34;33.28;;;31.27;;
64157;SDS011;50449;51.528;5.076;2022-09-20T20:32:00;36.92;;;33.63;;
64157;SDS011;50449;51.528;5.076;2022-09-20T20:34:25;34.45;;;32.33;;
64157;SDS011;50449;51.528;5.076;2022-09-20T20:36:51;36.33;;;33.50;;
64157;SDS011;50449;51.528;5.076;2022-09-20T20:39:27;36.28;;;33.40;;
64157;SDS011;50449;51.528;5.076;2022-09-20T20:41:55;36.33;;;33.20;;
64157;SDS011;50449;51.528;5.076;2022-09-20T20:44:22;34.65;;;32.28;;
64157;SDS011;50449;51.528;5.076;2022-09-20T20:46:47;38.33;;;35.83;;
64157;SDS011;50449;51.528;5.076;2022-09-20T20:49:14;34.58;;;32.15;;